Automated Weather Station

Lita, Tayabas, Quezon


Readings

as of August 06, 2016 01:00 AM
Wind Speed
1.4 mm
Rainfall Amount
0 mm
Rainfall Intensity
0 mm
Air Temperature
mm
Wind Direction
293 mm
Air Humidity
88.4 mm

Data Source: PREDICT (Advanced Science and Technology Institute)

12 HOUR DATA

PREVIOUS DATA

From
To
DateTime Wind Speed Rain Amount Rain Intensity Air Temperature Air Pressure Wind Direction Air Humidity
August 03, 2016 06:45 PM 0 0 mm 0 28.5 988.69 0 79.8
August 03, 2016 06:30 PM 0 0 mm 0 28.9 988.55 0 78.1
August 03, 2016 06:15 PM 0 0 mm 0 29.1 988.42 0 76.5
August 03, 2016 06:00 PM 0 0 mm 0 28.9 988.15 0 77.4
August 03, 2016 05:45 PM 0 0 mm 0 29 988.02 0 76.9
August 03, 2016 05:30 PM 0 0 mm 0 29.5 987.35 0 75.7
August 03, 2016 05:15 PM 0 0 mm 0 29.6 987.35 0 75.4
August 03, 2016 05:00 PM 0 0 mm 0 29.7 987.49 0 73.6
August 03, 2016 04:45 PM 0 0 mm 0 30.4 987.35 0 71.3
August 03, 2016 04:30 PM 0 0 mm 0 30.8 987.35 0 69.2
August 03, 2016 04:15 PM 0 0 mm 0 30.4 987.22 0 71.3
August 03, 2016 04:00 PM 0 0 mm 0 30.8 987.35 0 67.7
August 03, 2016 03:45 PM 0 0 mm 0 30.7 987.62 0 67.4
August 03, 2016 03:30 PM 0 0 mm 0 30.8 987.62 0 65.9
August 03, 2016 03:15 PM 0 0 mm 0 30.6 987.62 0 70.5
August 03, 2016 03:00 PM 0 0 mm 0 31.7 987.62 0 66.9
August 03, 2016 02:45 PM 0 0 mm 0 30.9 987.62 0 68.1
August 03, 2016 02:30 PM 0 0 mm 0 31.3 987.62 0 71.1
August 03, 2016 02:15 PM 0 0 mm 0 31.3 987.62 0 65.5
August 03, 2016 02:00 PM 0 0 mm 0 31.7 987.09 0 65.2
August 03, 2016 01:45 PM 0 0 mm 0 30.7 987.75 0 69.7
August 03, 2016 01:30 PM 0 0 mm 0 31.1 987.62 0 67.3
August 03, 2016 01:15 PM 0 0 mm 0 30.9 987.89 0 71.4
August 03, 2016 01:00 PM 0 0 mm 0 31.3 988.42 0 69.4
August 03, 2016 12:45 PM 0 0 mm 0 30.2 988.69 0 71.4
August 03, 2016 12:30 PM 0 0 mm 0 30.5 988.82 0 71.3
August 03, 2016 12:15 PM 0 0 mm 0 29.8 989.22 0 75.7
August 03, 2016 12:00 PM 0 0 mm 0 29.9 988.82 0 78.4
August 03, 2016 11:45 AM 0 0.91 mm 0 29.4 989.35 0 78.4
August 03, 2016 11:30 AM 0 0.21 mm 8.3 29.5 989.35 0 77.8